Cromwell, Kentucky
Current Conditions -  °F | °C
As of 12:53 AM on Saturday 29 Nov 2014 (Local Time) from KBWG Reporting Station
Clear Clear  
Wind Chill: 37°   Ceiling: Unl
Heat Index: 42°   Visibility: 10mi
Dew Point: 22°   Wind: 8mph
Humidity: 45%   Direction: 210°SSW
Pressure: 30.1"   Gusts: NA
Location:  37.34°N, 86.79°W
Report Text: KBWG 290653Z AUTO 21007KT 10SM CLR 06/M06 A3010 RMK AO2 SLP194 T00561056
Loading
Personal Weather Stations






























Interactive Weather Map New forecast layout! Learn more

10-Day Weather Forecast

Advertisements
Track Severe Weather on mobile